Latest Weather Observations for Cape Flattery

IDQ60801

Issued at 4:32 pm EST Thursday 13 August 2020 (issued every 10 minutes, with the page automatically refreshed every 10 minutes)

About weather observations | Map of weather stations | Latest weather observations for QLD | Other Formats
Station Details ID: 031213 Name: CAPE FLATTERY Lat: -14.97 Lon: 145.31 Height: 18.5 m
Data from the previous 72 hours. | See also: Recent months at Cape Flattery
Date/Time
EST
Temp
°C
App
Temp
°C
Dew
Point
°C
Rel
Hum
%
Delta-T
°C
Wind Press
QNH
hPa
Press
MSL
hPa
Rain since
9am
mm
Dir  Spd
km/h
Gust
km/h
Spd
kts
Gust
kts
13/04:30pm 26.3 25.0 19.9 68 4.2 SSE 26 35 14 19 1013.7 1013.6 0.0
13/04:00pm 26.9 25.4 20.3 67 4.3 SSE 28 35 15 19 1013.7 1013.6 0.0
13/03:30pm 27.2 26.2 20.5 67 4.4 SSE 26 35 14 19 1013.9 1013.8 0.0
13/03:00pm 27.6 26.2 19.7 62 5.1 SSE 26 33 14 18 1014.1 1014.0 0.0
13/02:30pm 27.4 25.8 20.0 64 4.8 SE 28 33 15 18 1014.4 1014.3 0.0
13/02:00pm 27.8 26.2 19.1 59 5.6 SE 26 33 14 18 1015.0 1014.9 0.0
13/01:30pm 27.5 25.6 19.3 61 5.3 SE 28 33 15 18 1015.5 1015.4 0.0
13/01:00pm 28.2 26.7 20.2 62 5.2 SSE 28 35 15 19 1015.7 1015.6 0.0
13/12:30pm 28.2 26.5 19.7 60 5.5 SSE 28 35 15 19 1015.9 1015.8 0.0
13/12:00pm 27.6 26.2 19.7 62 5.1 SE 26 35 14 19 1016.3 1016.2 0.0
13/11:30am 27.5 25.8 19.8 63 5.0 SSE 28 35 15 19 1016.6 1016.5 0.0
13/11:00am 27.4 25.8 20.0 64 4.8 SE 28 35 15 19 1016.8 1016.7 0.0
13/10:30am 27.2 25.6 20.0 64 4.7 SE 28 37 15 20 1017.0 1016.9 0.0
13/10:00am 27.0 25.5 20.3 66 4.4 SE 28 35 15 19 1016.9 1016.8 0.0
13/09:30am 26.0 25.7 20.3 71 3.7 SE 22 32 12 17 1017.0 1016.9 0.0
13/09:00am 26.4 25.8 20.5 70 3.9 SE 24 33 13 18 1016.8 1016.7 0.0
13/08:30am 25.9 25.3 19.8 69 4.0 SE 22 30 12 16 1016.6 1016.5 0.0
13/08:00am 25.2 24.6 19.8 72 3.5 SE 22 30 12 16 1016.3 1016.2 0.0
13/07:30am 24.7 24.9 20.2 76 2.9 SE 19 26 10 14 1016.0 1015.9 0.0
13/07:00am 23.7 24.3 20.2 81 2.3 SE 17 22 9 12 1015.6 1015.5 0.0
13/06:30am 23.3 24.2 20.1 82 2.1 SE 15 22 8 12 1015.3 1015.2 0.0
13/06:00am 23.4 24.4 20.2 82 2.1 SE 15 20 8 11 1014.9 1014.8 0.0
13/05:30am 23.4 23.4 19.8 80 2.3 SE 19 26 10 14 1014.6 1014.5 0.0
13/05:00am 23.6 23.7 19.9 80 2.4 SE 19 24 10 13 1014.6 1014.5 0.0
13/04:30am 23.7 24.3 20.2 81 2.3 SE 17 20 9 11 1014.5 1014.4 0.0
13/04:00am 23.3 23.7 19.9 81 2.2 SE 17 24 9 13 1014.4 1014.3 0.0
13/03:30am 23.4 24.0 20.2 82 2.1 SE 17 20 9 11 1014.5 1014.4 0.0
13/03:00am 23.6 24.1 20.1 81 2.3 SE 17 24 9 13 1014.6 1014.5 0.0
13/02:30am 23.3 23.8 20.1 82 2.1 SE 17 24 9 13 1014.6 1014.5 0.0
13/02:00am 23.3 23.8 20.1 82 2.1 SE 17 20 9 11 1014.8 1014.7 0.0
13/01:30am 23.2 24.1 20.0 82 2.1 SE 15 20 8 11 1015.0 1014.9 0.0
13/01:00am 23.2 24.5 20.2 83 1.9 SE 13 17 7 9 1015.3 1015.2 0.0
13/12:30am 23.0 24.3 20.1 84 1.9 SE 13 19 7 10 1015.5 1015.4 0.0
13/12:00am 22.8 24.2 20.3 86 1.6 ESE 13 15 7 8 1015.5 1015.4 0.0
 
Date/Time
EST
Temp
°C
App
Temp
°C
Dew
Point
°C
Rel
Hum
%
Delta-T
°C
Wind Press
QNH
hPa
Press
MSL
hPa
Rain since
9am
mm
Dir  Spd
km/h
Gust
km/h
Spd
kts
Gust
kts
12/11:30pm 22.6 24.7 20.1 86 1.6 ESE 9 13 5 7 1015.7 1015.6 0.0
12/11:00pm 22.8 24.6 20.3 86 1.6 ESE 11 15 6 8 1015.9 1015.8 0.0
12/10:30pm 22.7 24.5 20.4 87 1.5 ESE 11 15 6 8 1016.1 1016.0 0.0
12/10:00pm 22.4 24.3 20.5 89 1.2 ESE 11 15 6 8 1016.1 1016.0 0.0
12/09:30pm 22.3 24.3 20.0 87 1.5 E 9 13 5 7 1016.0 1015.9 0.0
12/09:00pm 22.5 24.4 20.6 89 1.2 ESE 11 15 6 8 1015.8 1015.7 0.0
12/08:30pm 22.1 23.8 20.2 89 1.2 ESE 11 13 6 7 1015.6 1015.5 0.0
12/08:00pm 22.2 24.6 20.1 88 1.4 E 7 11 4 6 1015.3 1015.2 0.0
12/07:30pm 22.4 24.5 20.1 87 1.5 ESE 9 13 5 7 1015.0 1014.9 0.0
12/07:00pm 22.9 25.4 20.2 85 1.7 ESE 7 9 4 5 1014.7 1014.6 0.0
12/06:30pm 23.7 25.5 20.4 82 2.1 SE 11 15 6 8 1014.4 1014.3 0.0
12/06:00pm 24.5 25.7 20.6 79 2.5 SE 15 20 8 11 1014.2 1014.1 0.0
12/05:30pm 25.3 25.6 20.8 76 3.0 SE 20 26 11 14 1014.3 1014.2 0.0
12/05:00pm 25.9 26.3 20.9 74 3.3 SE 20 28 11 15 1014.4 1014.3 0.0
12/04:30pm 26.3 26.4 20.4 70 3.9 SE 20 26 11 14 1014.4 1014.3 0.0
12/04:00pm 26.6 27.0 20.9 71 3.8 SE 20 28 11 15 1014.6 1014.5 0.0
12/03:30pm 26.9 27.3 21.0 70 3.9 SE 20 30 11 16 1014.5 1014.4 0.0
12/03:00pm 26.7 26.6 20.8 70 3.9 SE 22 28 12 15 1014.6 1014.5 0.0
12/02:30pm 27.1 27.2 21.2 70 3.9 SE 22 30 12 16 1014.9 1014.8 0.0
12/02:00pm 27.2 26.7 20.8 68 4.2 SSE 24 30 13 16 1015.3 1015.2 0.0
12/01:30pm 27.7 27.9 21.3 68 4.3 SSE 22 32 12 17 1015.6 1015.5 0.0
12/01:00pm 27.5 27.3 21.3 69 4.1 SSE 24 33 13 18 1016.1 1016.0 0.0
12/12:30pm 26.5 25.0 20.3 68 4.1 SSE 28 35 15 19 1016.7 1016.6 0.0
12/12:00pm 26.8 25.8 20.4 68 4.2 SSE 26 35 14 19 1017.2 1017.1 0.0
12/11:30am 26.9 26.0 20.7 69 4.1 SSE 26 35 14 19 1017.6 1017.5 0.0
12/11:00am 26.9 26.2 21.0 70 3.9 SSE 26 35 14 19 1018.0 1017.9 0.0
12/10:30am 26.4 25.5 20.7 71 3.7 S 26 33 14 18 1018.2 1018.1 0.0
12/10:00am 25.8 24.5 20.6 73 3.4 SSE 28 35 15 19 1018.3 1018.2 0.0
12/09:30am 25.0 24.2 20.9 78 2.7 S 26 35 14 19 1018.4 1018.3 0.0
12/09:00am 25.1 24.7 21.0 78 2.7 S 24 30 13 16 1018.1 1018.0 0.0
12/08:30am 25.5 25.9 20.7 75 3.1 SSE 19 22 10 12 1017.7 1017.6 0.0
12/08:00am 25.0 26.5 21.3 80 2.4 SE 15 20 8 11 1017.3 1017.2 0.0
12/07:30am 23.0 26.0 21.3 90 1.1 SE 7 9 4 5 1016.9 1016.8 0.0
12/07:00am 21.3 23.6 19.8 91 1.0 SE 7 9 4 5 1016.5 1016.4 0.0
12/06:30am 21.4 23.3 19.7 90 1.1 ESE 9 11 5 6 1016.1 1016.0 0.0
12/06:00am 21.7 24.0 19.8 89 1.2 ESE 7 9 4 5 1015.9 1015.8 0.0
12/05:30am 22.0 24.2 20.5 91 1.0 ESE 9 11 5 6 1015.7 1015.6 0.0
12/05:00am 21.7 23.3 20.0 90 1.1 ESE 11 11 6 6 1015.3 1015.2 0.0
12/04:30am 21.6 23.1 19.7 89 1.2 ESE 11 13 6 7 1015.2 1015.1 0.0
12/04:00am 21.9 23.3 19.6 87 1.5 ESE 11 13 6 7 1015.2 1015.1 0.0
12/03:30am 22.4 24.7 19.8 85 1.7 ESE 7 11 4 6 1015.3 1015.2 0.0
12/03:00am 22.7 24.6 19.7 83 1.9 SE 9 11 5 6 1015.6 1015.5 0.0
12/02:30am 23.3 25.1 20.4 84 1.9 SE 11 17 6 9 1015.8 1015.7 0.0
12/02:00am 23.3 24.3 20.2 83 2.0 SE 15 19 8 10 1016.1 1016.0 0.0
12/01:30am 23.6 25.3 20.1 81 2.3 SE 11 15 6 8 1016.5 1016.4 0.0
12/01:00am 23.6 25.3 20.1 81 2.3 SE 11 17 6 9 1016.9 1016.8 0.0
12/12:30am 23.7 25.3 20.0 80 2.4 SE 11 15 6 8 1017.1 1017.0 0.0
12/12:00am 23.7 25.4 20.2 81 2.3 SE 11 15 6 8 1017.1 1017.0 0.0
 
Date/Time
EST
Temp
°C
App
Temp
°C
Dew
Point
°C
Rel
Hum
%
Delta-T
°C
Wind Press
QNH
hPa
Press
MSL
hPa
Rain since
9am
mm
Dir  Spd
km/h
Gust
km/h
Spd
kts
Gust
kts
11/11:30pm 23.7 24.9 20.0 80 2.4 SE 13 15 7 8 1017.2 1017.1 0.0
11/11:00pm 23.5 24.7 19.8 80 2.4 SE 13 19 7 10 1017.0 1016.9 0.0
11/10:30pm 23.3 24.4 19.7 80 2.3 SE 13 19 7 10 1016.8 1016.7 0.0
11/10:00pm 23.2 23.9 19.6 80 2.3 SE 15 20 8 11 1016.9 1016.8 0.0
11/09:30pm 23.0 23.6 19.4 80 2.3 SE 15 22 8 12 1017.0 1016.9 0.0
11/09:00pm 22.9 23.1 19.3 80 2.3 SE 17 19 9 10 1016.9 1016.8 0.0
11/08:30pm 23.0 23.1 19.2 79 2.4 SE 17 22 9 12 1016.6 1016.5 0.0
11/08:00pm 23.0 23.0 19.0 78 2.5 SE 17 22 9 12 1016.3 1016.2 0.0
11/07:30pm 23.1 23.2 19.1 78 2.5 SE 17 22 9 12 1015.9 1015.8 0.0
11/07:00pm 23.2 23.2 18.9 77 2.7 SE 17 24 9 13 1015.5 1015.4 0.0
11/06:30pm 23.4 23.1 19.1 77 2.7 SE 19 26 10 14 1015.2 1015.1 0.0
11/06:00pm 23.9 23.4 19.0 74 3.1 SE 20 28 11 15 1014.9 1014.8 0.0
11/05:30pm 24.6 23.8 19.2 72 3.5 SE 22 32 12 17 1014.6 1014.5 0.0
11/05:00pm 24.9 23.6 19.1 70 3.7 SE 24 33 13 18 1014.4 1014.3 0.0
11/04:30pm 25.6 24.6 19.7 70 3.8 SSE 24 32 13 17 1014.5 1014.4 0.0
11/04:00pm 25.2 23.8 19.6 71 3.6 SSE 26 32 14 17 1014.4 1014.3 0.0
11/03:30pm 25.1 23.0 19.0 69 3.9 SSE 28 35 15 19 1014.4 1014.3 0.0
11/03:00pm 26.1 23.7 19.2 65 4.4 SSE 30 37 16 20 1014.5 1014.4 0.0
11/02:30pm 25.8 23.8 19.2 67 4.2 S 28 35 15 19 1014.7 1014.6 0.0
11/02:00pm 26.7 24.6 19.8 66 4.5 SSE 30 39 16 21 1015.0 1014.9 0.0
11/01:30pm 26.1 24.0 19.7 68 4.1 SSE 30 39 16 21 1015.2 1015.1 0.0
11/01:00pm 25.5 23.5 19.2 68 4.0 SSE 28 35 15 19 1015.5 1015.4 0.0
11/12:30pm 26.0 24.5 20.3 71 3.7 S 28 39 15 21 1015.6 1015.5 0.0
11/12:00pm 24.9 22.7 19.5 72 3.5 SSE 30 37 16 20 1016.1 1016.0 0.0
11/11:30am 24.9 23.2 19.9 74 3.2 S 28 35 15 19 1016.3 1016.2 0.0
11/11:00am 25.0 24.2 20.0 74 3.2 SSE 24 33 13 18 1016.6 1016.5 0.0
11/10:30am 25.1 24.3 20.1 74 3.2 SSE 24 32 13 17 1017.1 1017.0 0.0
11/10:00am 24.9 23.8 20.2 75 3.1 SSE 26 35 14 19 1017.4 1017.3 0.0
11/09:30am 24.2 23.2 19.7 76 2.9 SSE 24 35 13 19 1017.4 1017.3 0.0
11/09:00am 23.8 22.7 19.5 77 2.8 SSE 24 33 13 18 1017.3 1017.2 0.0
11/08:30am 23.9 22.5 19.6 77 2.8 SSE 26 33 14 18 1016.9 1016.8 0.0
11/08:00am 23.6 22.8 19.3 77 2.7 SSE 22 32 12 17 1016.6 1016.5 0.0
11/07:30am 23.2 22.7 19.2 78 2.5 SSE 20 28 11 15 1016.4 1016.3 0.0
11/07:00am 23.3 22.5 19.2 78 2.6 SSE 22 28 12 15 1016.0 1015.9 0.0
11/06:30am 23.1 22.2 19.1 78 2.5 SSE 22 30 12 16 1015.8 1015.7 0.0
11/06:00am 23.1 21.7 18.8 77 2.7 SSE 24 35 13 19 1015.3 1015.2 0.0
11/05:30am 23.2 22.1 18.7 76 2.8 SSE 22 32 12 17 1015.0 1014.9 0.0
11/05:00am 23.2 21.7 18.5 75 3.0 SSE 24 33 13 18 1014.9 1014.8 0.0
11/04:30am 23.2 21.7 18.5 75 3.0 SSE 24 32 13 17 1014.7 1014.6 0.0
11/04:00am 23.2 22.0 18.3 74 3.1 SSE 22 32 12 17 1014.6 1014.5 0.0
11/03:30am 23.3 21.7 18.4 74 3.1 SSE 24 35 13 19 1014.5 1014.4 0.0
11/03:00am 23.2 22.0 18.3 74 3.1 SSE 22 32 12 17 1014.7 1014.6 0.0
11/02:30am 23.3 21.7 18.4 74 3.1 SSE 24 32 13 17 1014.7 1014.6 0.0
11/02:00am 23.4 21.9 18.5 74 3.1 SE 24 33 13 18 1014.8 1014.7 0.0
11/01:30am 23.3 21.7 18.4 74 3.1 SE 24 35 13 19 1015.0 1014.9 0.0
11/01:00am 23.3 21.8 18.6 75 3.0 SE 24 32 13 17 1015.2 1015.1 0.0
11/12:30am 23.3 21.8 18.6 75 3.0 SE 24 33 13 18 1015.3 1015.2 0.0
11/12:00am 23.3 21.9 18.8 76 2.8 SSE 24 30 13 16 1015.5 1015.4 0.0
 
Date/Time
EST
Temp
°C
App
Temp
°C
Dew
Point
°C
Rel
Hum
%
Delta-T
°C
Wind Press
QNH
hPa
Press
MSL
hPa
Rain since
9am
mm
Dir  Spd
km/h
Gust
km/h
Spd
kts
Gust
kts
10/11:30pm 23.3 21.8 18.6 75 3.0 SE 24 35 13 19 1015.6 1015.5 0.0
10/11:00pm 23.2 21.8 18.7 76 2.8 SSE 24 33 13 18 1015.7 1015.6 0.0
10/10:30pm 23.2 22.2 18.9 77 2.7 SSE 22 30 12 16 1015.7 1015.6 0.0
10/10:00pm 23.2 22.1 18.7 76 2.8 SSE 22 30 12 16 1015.9 1015.8 0.0
10/09:30pm 23.1 22.0 18.6 76 2.8 SE 22 30 12 16 1015.8 1015.7 0.0
10/09:00pm 22.9 21.5 18.7 77 2.6 SE 24 33 13 18 1015.6 1015.5 0.0
10/08:30pm 22.7 21.1 18.3 76 2.8 SE 24 37 13 20 1015.4 1015.3 0.0
10/08:00pm 22.7 20.6 18.0 75 2.9 SE 26 35 14 19 1015.0 1014.9 0.0
10/07:30pm 22.7 20.2 18.0 75 2.9 SE 28 35 15 19 1014.8 1014.7 0.0
10/07:00pm 22.9 20.4 18.0 74 3.1 SE 28 35 15 19 1014.7 1014.6 0.0
10/06:30pm 23.3 21.3 18.4 74 3.1 SE 26 33 14 18 1014.4 1014.3 0.0
10/06:00pm 23.4 20.9 18.1 72 3.3 SE 28 35 15 19 1014.2 1014.1 0.0
10/05:30pm 23.7 21.1 17.7 69 3.7 SE 28 39 15 21 1014.0 1013.9 0.0
10/05:00pm 24.1 21.0 17.4 66 4.2 SSE 30 39 16 21 1014.0 1013.9 0.0

Other formats

Comma delimited format used in spreadsheet applications
http://www.bom.gov.au/fwo/IDQ60801/IDQ60801.94188.axf

JavaScript Object Notation format (JSON) in row-major order
http://www.bom.gov.au/fwo/IDQ60801/IDQ60801.94188.json

Data quality

Most of these data are generated automatically and are frequently updated. Quality checks on data are not normally performed. It is possible for incorrect values to appear. Refer to information at About Latest Weather Observations and please check the disclaimer before using these data.